Time;durP1;ratioP1;P1;durP2;ratioP2;P2;SDS_P1;SDS_P2;PMS_P1;PMS_P2;Temp;Humidity;BMP_temperature;BMP_pressure;BME280_temperature;BME280_humidity;BME280_pressure;Samples;Min_cycle;Max_cycle;Signal;HPM_P1;HPM_P2
2022/03/28 00:01:58;;;;;;;0.00;0.00;;;;;;;;;;4957110;29;20195;-73
2022/03/28 00:04:25;;;;;;;0.00;0.00;;;;;;;;;;4956930;29;20239;-73
2022/03/28 00:06:54;;;;;;;0.00;0.00;;;;;;;;;;4955400;28;20197;-73
2022/03/28 00:09:22;;;;;;;0.00;0.00;;;;;;;;;;4956606;29;20205;-74
2022/03/28 00:11:49;;;;;;;0.00;0.00;;;;;;;;;;4956858;29;20661;-73
2022/03/28 00:14:17;;;;;;;0.00;0.00;;;;;;;;;;4957045;29;20203;-73
2022/03/28 00:16:44;;;;;;;0.00;0.00;;;;;;;;;;4956523;29;20234;-73
2022/03/28 00:19:12;;;;;;;0.00;0.00;;;;;;;;;;4956719;29;20194;-73
2022/03/28 00:21:40;;;;;;;0.00;0.00;;;;;;;;;;4956859;29;20203;-73
2022/03/28 00:24:09;;;;;;;0.00;0.00;;;;;;;;;;4956648;29;20522;-74
2022/03/28 00:26:38;;;;;;;0.00;0.00;;;;;;;;;;4956212;29;20195;-73
2022/03/28 00:29:05;;;;;;;0.00;0.00;;;;;;;;;;4956462;29;20202;-74
2022/03/28 00:31:33;;;;;;;0.00;0.00;;;;;;;;;;4956470;29;20645;-74
2022/03/28 00:34:01;;;;;;;0.00;0.00;;;;;;;;;;4956411;29;20205;-74
2022/03/28 00:36:28;;;;;;;0.00;0.00;;;;;;;;;;4956395;29;20228;-72
2022/03/28 00:38:56;;;;;;;0.00;0.00;;;;;;;;;;4956300;29;20191;-72
2022/03/28 00:41:25;;;;;;;0.00;0.00;;;;;;;;;;4956353;29;20665;-74
2022/03/28 00:43:56;;;;;;;0.00;0.00;;;;;;;;;;4956316;29;20603;-74
2022/03/28 00:46:24;;;;;;;0.00;0.00;;;;;;;;;;4956126;29;20194;-73
2022/03/28 00:48:52;;;;;;;0.00;0.00;;;;;;;;;;4956459;29;20199;-74
2022/03/28 00:51:21;;;;;;;0.00;0.00;;;;;;;;;;4956265;29;20194;-74
2022/03/28 00:53:50;;;;;;;0.00;0.00;;;;;;;;;;4955930;29;20282;-74
2022/03/28 00:56:18;;;;;;;0.00;0.00;;;;;;;;;;4956017;29;20191;-74
2022/03/28 00:58:47;;;;;;;0.00;0.00;;;;;;;;;;4955760;29;20329;-74
2022/03/28 01:01:14;;;;;;;0.00;0.00;;;;;;;;;;4955895;29;20199;-73
2022/03/28 01:03:42;;;;;;;0.00;0.00;;;;;;;;;;4955599;29;20234;-73
2022/03/28 01:06:09;;;;;;;0.00;0.00;;;;;;;;;;4955622;29;20230;-73
2022/03/28 01:08:37;;;;;;;0.00;0.00;;;;;;;;;;4955824;29;20226;-72
2022/03/28 01:11:06;;;;;;;0.00;0.00;;;;;;;;;;4955838;29;20294;-72
2022/03/28 01:13:35;;;;;;;0.00;0.00;;;;;;;;;;4955744;29;20564;-73
2022/03/28 01:16:04;;;;;;;0.00;0.00;;;;;;;;;;4955604;29;20201;-73
2022/03/28 01:18:32;;;;;;;0.00;0.00;;;;;;;;;;4954884;28;20195;-73
2022/03/28 01:21:01;;;;;;;0.00;0.00;;;;;;;;;;4955546;29;20199;-72
2022/03/28 01:23:29;;;;;;;0.00;0.00;;;;;;;;;;4955500;29;20261;-73
2022/03/28 01:25:57;;;;;;;0.00;0.00;;;;;;;;;;4955466;29;20233;-73
2022/03/28 01:28:25;;;;;;;0.00;0.00;;;;;;;;;;4955344;29;20679;-73
2022/03/28 01:30:55;;;;;;;0.00;0.00;;;;;;;;;;4955094;29;20666;-73
2022/03/28 01:33:23;;;;;;;0.00;0.00;;;;;;;;;;4955344;29;20199;-73
2022/03/28 01:35:52;;;;;;;0.00;0.00;;;;;;;;;;4955269;29;20195;-72
2022/03/28 01:38:22;;;;;;;0.00;0.00;;;;;;;;;;4955265;29;20213;-74
2022/03/28 01:40:50;;;;;;;0.00;0.00;;;;;;;;;;4955031;29;20217;-72
2022/03/28 01:43:19;;;;;;;0.00;0.00;;;;;;;;;;4955035;29;20199;-74
2022/03/28 01:45:47;;;;;;;0.00;0.00;;;;;;;;;;4955297;29;20314;-74
2022/03/28 01:48:15;;;;;;;0.00;0.00;;;;;;;;;;4955319;29;20554;-74
2022/03/28 01:50:42;;;;;;;0.00;0.00;;;;;;;;;;4954790;29;20736;-74
2022/03/28 01:53:10;;;;;;;0.00;0.00;;;;;;;;;;4954879;29;20195;-73
2022/03/28 01:55:39;;;;;;;0.00;0.00;;;;;;;;;;4955012;29;20205;-73
2022/03/28 01:58:06;;;;;;;0.00;0.00;;;;;;;;;;4955382;29;20250;-73
2022/03/28 02:00:34;;;;;;;0.00;0.00;;;;;;;;;;4954533;29;20210;-74
2022/03/28 02:03:02;;;;;;;0.00;0.00;;;;;;;;;;4954896;29;20242;-73
2022/03/28 02:05:29;;;;;;;0.00;0.00;;;;;;;;;;4954639;29;20699;-73
2022/03/28 02:07:59;;;;;;;0.13;0.13;;;;;;;;;;4954563;29;20653;-74
2022/03/28 02:10:27;;;;;;;0.00;0.00;;;;;;;;;;4954890;29;20192;-73
2022/03/28 02:12:56;;;;;;;0.00;0.00;;;;;;;;;;4954527;29;20214;-73
2022/03/28 02:15:23;;;;;;;0.00;0.00;;;;;;;;;;4954708;29;20194;-73
2022/03/28 02:17:51;;;;;;;0.00;0.00;;;;;;;;;;4954550;29;20195;-73
2022/03/28 02:20:19;;;;;;;0.00;0.00;;;;;;;;;;4954597;29;20199;-74
2022/03/28 02:22:47;;;;;;;0.00;0.00;;;;;;;;;;4954207;29;20210;-74
2022/03/28 02:25:16;;;;;;;0.00;0.00;;;;;;;;;;4954343;29;20565;-73
2022/03/28 02:27:44;;;;;;;0.00;0.00;;;;;;;;;;4954642;29;20194;-73
2022/03/28 02:30:14;;;;;;;0.00;0.00;;;;;;;;;;4953712;28;20274;-74
2022/03/28 02:32:42;;;;;;;0.00;0.00;;;;;;;;;;4954028;29;20202;-73
2022/03/28 02:35:10;;;;;;;0.57;0.57;;;;;;;;;;4954276;29;20588;-73
2022/03/28 02:37:37;;;;;;;0.00;0.00;;;;;;;;;;4954311;29;20282;-73
2022/03/28 02:40:05;;;;;;;0.00;0.00;;;;;;;;;;4954455;29;20199;-72
2022/03/28 02:42:33;;;;;;;0.00;0.00;;;;;;;;;;4954149;29;20199;-73
2022/03/28 02:45:01;;;;;;;0.00;0.00;;;;;;;;;;4954265;29;20233;-74
2022/03/28 02:47:30;;;;;;;0.00;0.00;;;;;;;;;;4954122;29;20191;-74
2022/03/28 02:49:57;;;;;;;0.00;0.00;;;;;;;;;;4954072;29;20195;-74
2022/03/28 02:52:25;;;;;;;0.00;0.00;;;;;;;;;;4954178;29;20202;-74
2022/03/28 02:54:52;;;;;;;0.00;0.00;;;;;;;;;;4954529;29;20210;-73
2022/03/28 02:57:20;;;;;;;0.00;0.00;;;;;;;;;;4954256;29;20218;-73
2022/03/28 02:59:47;;;;;;;0.00;0.00;;;;;;;;;;4954120;29;20237;-73
2022/03/28 03:02:14;;;;;;;0.00;0.00;;;;;;;;;;4954027;29;20211;-73
2022/03/28 03:04:43;;;;;;;0.00;0.00;;;;;;;;;;4953606;29;20237;-73
2022/03/28 03:07:10;;;;;;;0.00;0.00;;;;;;;;;;4954097;29;20564;-72
2022/03/28 03:09:38;;;;;;;0.00;0.00;;;;;;;;;;4954132;29;20195;-73
2022/03/28 03:12:06;;;;;;;0.00;0.00;;;;;;;;;;4954139;29;20195;-73
2022/03/28 03:14:34;;;;;;;0.00;0.00;;;;;;;;;;4953668;29;20195;-74
2022/03/28 03:17:02;;;;;;;0.00;0.00;;;;;;;;;;4953884;29;20561;-74
2022/03/28 03:19:30;;;;;;;0.30;0.30;;;;;;;;;;4954068;29;20226;-74
2022/03/28 03:21:58;;;;;;;0.00;0.00;;;;;;;;;;4954119;29;20228;-74
2022/03/28 03:24:26;;;;;;;0.00;0.00;;;;;;;;;;4953917;29;20672;-72
2022/03/28 03:26:53;;;;;;;0.00;0.00;;;;;;;;;;4953435;29;20227;-72
2022/03/28 03:29:21;;;;;;;0.00;0.00;;;;;;;;;;4953751;29;20195;-73
2022/03/28 03:31:49;;;;;;;0.00;0.00;;;;;;;;;;4953789;29;20202;-73
2022/03/28 03:34:17;;;;;;;0.00;0.00;;;;;;;;;;4953909;29;20199;-72
2022/03/28 03:36:45;;;;;;;0.00;0.00;;;;;;;;;;4953861;29;20206;-72
2022/03/28 03:39:14;;;;;;;0.00;0.00;;;;;;;;;;4953745;29;20539;-73
2022/03/28 03:41:42;;;;;;;0.00;0.00;;;;;;;;;;4955185;28;20199;-74
2022/03/28 03:44:10;;;;;;;0.00;0.00;;;;;;;;;;4957190;29;20199;-73
2022/03/28 03:46:38;;;;;;;0.00;0.00;;;;;;;;;;4957354;29;20314;-73
2022/03/28 03:49:05;;;;;;;0.00;0.00;;;;;;;;;;4957499;29;20294;-74
2022/03/28 03:51:33;;;;;;;0.00;0.00;;;;;;;;;;4957218;29;20554;-73
2022/03/28 03:54:00;;;;;;;0.00;0.00;;;;;;;;;;4957295;29;20226;-72
2022/03/28 03:56:29;;;;;;;0.00;0.00;;;;;;;;;;4956970;29;20290;-73
2022/03/28 03:58:57;;;;;;;0.00;0.00;;;;;;;;;;4957024;29;20727;-72
2022/03/28 04:01:26;;;;;;;0.00;0.00;;;;;;;;;;4956972;29;20199;-72
2022/03/28 04:03:54;;;;;;;0.00;0.00;;;;;;;;;;4956880;29;20227;-72
2022/03/28 04:06:21;;;;;;;0.00;0.00;;;;;;;;;;4956760;29;20273;-73
2022/03/28 04:08:49;;;;;;;0.00;0.00;;;;;;;;;;4956682;29;20195;-72
2022/03/28 04:11:16;;;;;;;0.00;0.00;;;;;;;;;;4956927;29;20195;-74
2022/03/28 04:13:45;;;;;;;0.00;0.00;;;;;;;;;;4956791;29;20692;-73
2022/03/28 04:16:13;;;;;;;0.00;0.00;;;;;;;;;;4956845;29;20213;-72
2022/03/28 04:18:40;;;;;;;0.00;0.00;;;;;;;;;;4956475;29;20205;-73
2022/03/28 04:21:08;;;;;;;0.00;0.00;;;;;;;;;;4956565;29;20195;-72
2022/03/28 04:23:35;;;;;;;0.00;0.00;;;;;;;;;;4956655;29;20195;-73
2022/03/28 04:26:03;;;;;;;0.00;0.00;;;;;;;;;;4956484;29;20226;-72
2022/03/28 04:28:31;;;;;;;0.00;0.00;;;;;;;;;;4956540;28;20213;-73
2022/03/28 04:31:00;;;;;;;0.00;0.00;;;;;;;;;;4956791;29;20195;-73
2022/03/28 04:33:28;;;;;;;0.00;0.00;;;;;;;;;;4956446;29;20195;-73
2022/03/28 04:35:55;;;;;;;0.00;0.00;;;;;;;;;;4956313;29;20234;-73
2022/03/28 04:38:25;;;;;;;0.00;0.00;;;;;;;;;;4956556;29;20205;-73
2022/03/28 04:40:52;;;;;;;0.00;0.00;;;;;;;;;;4956138;29;20202;-73
2022/03/28 04:43:21;;;;;;;0.00;0.00;;;;;;;;;;4956511;29;20255;-73
2022/03/28 04:45:48;;;;;;;0.00;0.00;;;;;;;;;;4956286;29;20227;-74
2022/03/28 04:48:18;;;;;;;0.00;0.00;;;;;;;;;;4956142;29;20195;-74
2022/03/28 04:50:46;;;;;;;0.00;0.00;;;;;;;;;;4955862;29;20198;-74
2022/03/28 04:53:14;;;;;;;0.00;0.00;;;;;;;;;;4955697;28;20293;-73
2022/03/28 04:55:41;;;;;;;0.00;0.00;;;;;;;;;;4956115;29;20205;-73
2022/03/28 04:58:09;;;;;;;0.00;0.00;;;;;;;;;;4956141;29;20203;-73
2022/03/28 05:00:37;;;;;;;0.00;0.00;;;;;;;;;;4955645;29;20199;-73
2022/03/28 05:03:05;;;;;;;0.00;0.00;;;;;;;;;;4956016;29;20202;-73
2022/03/28 05:05:34;;;;;;;0.00;0.00;;;;;;;;;;4955508;29;20239;-72
2022/03/28 05:08:01;;;;;;;0.00;0.00;;;;;;;;;;4956079;29;20205;-72
2022/03/28 05:10:29;;;;;;;0.00;0.00;;;;;;;;;;4955701;29;20521;-72
2022/03/28 05:12:57;;;;;;;0.00;0.00;;;;;;;;;;4955851;29;20290;-73
2022/03/28 05:15:28;;;;;;;0.00;0.00;;;;;;;;;;4955607;29;20208;-72
2022/03/28 05:17:55;;;;;;;0.00;0.00;;;;;;;;;;4955476;29;20238;-73
2022/03/28 05:20:22;;;;;;;0.00;0.00;;;;;;;;;;4955491;29;20197;-73
2022/03/28 05:22:51;;;;;;;0.00;0.00;;;;;;;;;;4955549;29;20191;-73
2022/03/28 05:25:19;;;;;;;0.00;0.00;;;;;;;;;;4955622;29;20203;-73
2022/03/28 05:27:47;;;;;;;0.00;0.00;;;;;;;;;;4955378;29;20221;-73
2022/03/28 05:30:15;;;;;;;0.00;0.00;;;;;;;;;;4955428;29;20202;-72
2022/03/28 05:32:43;;;;;;;0.00;0.00;;;;;;;;;;4955411;29;20290;-73
2022/03/28 05:35:11;;;;;;;0.00;0.00;;;;;;;;;;4955272;29;20199;-73
2022/03/28 05:37:39;;;;;;;0.00;0.00;;;;;;;;;;4955427;29;20206;-73
2022/03/28 05:40:10;;;;;;;0.00;0.00;;;;;;;;;;4955265;29;20211;-74
2022/03/28 05:42:38;;;;;;;0.00;0.00;;;;;;;;;;4954812;29;20250;-74
2022/03/28 05:45:06;;;;;;;0.00;0.00;;;;;;;;;;4954952;29;20206;-74
2022/03/28 05:47:33;;;;;;;0.00;0.00;;;;;;;;;;4955119;29;20321;-73
2022/03/28 05:50:02;;;;;;;0.00;0.00;;;;;;;;;;4955155;29;20568;-74
2022/03/28 05:52:29;;;;;;;0.00;0.00;;;;;;;;;;4955125;29;20199;-72
2022/03/28 05:54:57;;;;;;;0.00;0.00;;;;;;;;;;4954919;29;20565;-72
2022/03/28 05:57:26;;;;;;;0.00;0.00;;;;;;;;;;4954845;29;20283;-73
2022/03/28 05:59:54;;;;;;;0.00;0.00;;;;;;;;;;4954833;29;20694;-73
2022/03/28 06:02:21;;;;;;;0.00;0.00;;;;;;;;;;4954851;29;20289;-74
2022/03/28 06:04:48;;;;;;;0.00;0.00;;;;;;;;;;4954316;28;20330;-74
2022/03/28 06:07:16;;;;;;;0.00;0.00;;;;;;;;;;4954574;29;20406;-74
2022/03/28 06:09:44;;;;;;;0.00;0.00;;;;;;;;;;4954677;29;20297;-74
2022/03/28 06:12:11;;;;;;;0.00;0.00;;;;;;;;;;4954799;29;20203;-74
2022/03/28 06:14:41;;;;;;;0.00;0.00;;;;;;;;;;4954615;29;20206;-74
2022/03/28 06:17:09;;;;;;;0.00;0.00;;;;;;;;;;4954764;29;20199;-74
2022/03/28 06:19:37;;;;;;;0.00;0.00;;;;;;;;;;4954651;29;20437;-73
2022/03/28 06:22:05;;;;;;;0.00;0.00;;;;;;;;;;4954654;29;20641;-73
2022/03/28 06:24:33;;;;;;;0.00;0.00;;;;;;;;;;4954138;29;20202;-74
2022/03/28 06:27:00;;;;;;;0.00;0.00;;;;;;;;;;4954474;29;20692;-74
2022/03/28 06:29:27;;;;;;;0.00;0.00;;;;;;;;;;4954343;29;20191;-74
2022/03/28 06:31:56;;;;;;;0.00;0.00;;;;;;;;;;4954670;29;20207;-73
2022/03/28 06:34:24;;;;;;;0.00;0.00;;;;;;;;;;4954569;29;20199;-74
2022/03/28 06:36:52;;;;;;;0.00;0.00;;;;;;;;;;4954146;29;20199;-74
2022/03/28 06:39:19;;;;;;;0.00;0.00;;;;;;;;;;4954459;29;20281;-74
2022/03/28 06:41:47;;;;;;;0.00;0.00;;;;;;;;;;4954729;29;20194;-74
2022/03/28 06:44:15;;;;;;;0.00;0.00;;;;;;;;;;4954261;29;20201;-74
2022/03/28 06:46:44;;;;;;;0.00;0.00;;;;;;;;;;4954078;29;20311;-73
2022/03/28 06:49:13;;;;;;;0.60;0.60;;;;;;;;;;4954205;29;20199;-73
2022/03/28 06:51:41;;;;;;;0.00;0.00;;;;;;;;;;4953960;29;20653;-73
2022/03/28 06:54:10;;;;;;;0.00;0.00;;;;;;;;;;4954558;29;20199;-73
2022/03/28 06:56:38;;;;;;;0.00;0.00;;;;;;;;;;4953997;29;20195;-74
2022/03/28 06:59:06;;;;;;;0.00;0.00;;;;;;;;;;4954276;29;20199;-72
2022/03/28 07:01:34;;;;;;;0.00;0.00;;;;;;;;;;4954124;29;20293;-74
2022/03/28 07:04:03;;;;;;;0.00;0.00;;;;;;;;;;4954031;29;20322;-74
2022/03/28 07:06:32;;;;;;;1.33;1.33;;;;;;;;;;4953922;29;20330;-74
2022/03/28 07:09:04;;;;;;;0.00;0.00;;;;;;;;;;4954067;29;20199;-73
2022/03/28 07:11:32;;;;;;;0.00;0.00;;;;;;;;;;4954440;29;20203;-74
2022/03/28 07:13:59;;;;;;;0.00;0.00;;;;;;;;;;4953898;29;20289;-74
2022/03/28 07:16:28;;;;;;;3.10;1.50;;;;;;;;;;4955443;28;20303;-74
2022/03/28 07:18:55;;;;;;;0.00;0.00;;;;;;;;;;4957620;29;20202;-72
2022/03/28 07:21:24;;;;;;;0.20;0.20;;;;;;;;;;4958057;29;20203;-74
2022/03/28 07:23:53;;;;;;;0.50;0.50;;;;;;;;;;4957645;29;20657;-73
2022/03/28 07:26:21;;;;;;;0.00;0.00;;;;;;;;;;4957569;29;20223;-74
2022/03/28 07:28:49;;;;;;;2.23;1.43;;;;;;;;;;4957315;29;20191;-75
2022/03/28 07:31:18;;;;;;;0.47;0.43;;;;;;;;;;4957502;29;20195;-74
2022/03/28 07:33:46;;;;;;;0.73;0.20;;;;;;;;;;4957649;29;20529;-74
2022/03/28 07:36:15;;;;;;;0.00;0.00;;;;;;;;;;4957615;29;20199;-74
2022/03/28 07:38:43;;;;;;;0.50;0.40;;;;;;;;;;4957347;29;20249;-73
2022/03/28 07:41:12;;;;;;;0.00;0.00;;;;;;;;;;4957358;29;20199;-73
2022/03/28 07:43:39;;;;;;;0.50;0.50;;;;;;;;;;4957318;29;20195;-74
2022/03/28 07:46:06;;;;;;;0.00;0.00;;;;;;;;;;4957504;29;20209;-73
2022/03/28 07:48:34;;;;;;;0.00;0.00;;;;;;;;;;4956956;29;20286;-73
2022/03/28 07:51:01;;;;;;;0.00;0.00;;;;;;;;;;4957117;29;20195;-73
2022/03/28 07:53:29;;;;;;;0.10;0.10;;;;;;;;;;4957140;29;20195;-71
2022/03/28 07:55:57;;;;;;;0.00;0.00;;;;;;;;;;4957163;29;20246;-72
2022/03/28 07:58:26;;;;;;;0.00;0.00;;;;;;;;;;4957361;29;20206;-71
2022/03/28 08:00:54;;;;;;;0.30;0.30;;;;;;;;;;4956959;29;20235;-71
2022/03/28 08:03:21;;;;;;;0.00;0.00;;;;;;;;;;4957303;28;20215;-71
2022/03/28 08:05:48;;;;;;;0.00;0.00;;;;;;;;;;4956924;29;20849;-72
2022/03/28 08:08:16;;;;;;;0.07;0.07;;;;;;;;;;4956831;29;20233;-72
2022/03/28 08:10:43;;;;;;;0.30;0.30;;;;;;;;;;4956819;28;20199;-72
2022/03/28 08:13:11;;;;;;;0.30;0.30;;;;;;;;;;4956656;29;20205;-72
2022/03/28 08:15:40;;;;;;;0.47;0.47;;;;;;;;;;4957109;28;20555;-72
2022/03/28 08:18:08;;;;;;;0.00;0.00;;;;;;;;;;4956775;29;20209;-71
2022/03/28 08:20:36;;;;;;;0.00;0.00;;;;;;;;;;4956615;29;20201;-71
2022/03/28 08:23:03;;;;;;;0.03;0.03;;;;;;;;;;4956730;29;20206;-71
2022/03/28 08:25:32;;;;;;;0.10;0.10;;;;;;;;;;4956522;29;20202;-71
2022/03/28 08:28:00;;;;;;;0.00;0.00;;;;;;;;;;4955319;28;20700;-71
2022/03/28 08:30:27;;;;;;;0.97;0.53;;;;;;;;;;4956860;29;20203;-71
2022/03/28 08:32:56;;;;;;;0.17;0.17;;;;;;;;;;4956251;29;20205;-71
2022/03/28 08:35:27;;;;;;;0.15;0.15;;;;;;;;;;4956468;29;20191;-70
2022/03/28 08:37:54;;;;;;;1.45;1.35;;;;;;;;;;4956338;29;20187;-71
2022/03/28 08:40:22;;;;;;;0.25;0.25;;;;;;;;;;4956275;29;20671;-70
2022/03/28 08:42:49;;;;;;;1.17;0.95;;;;;;;;;;4956308;29;20222;-71
2022/03/28 08:45:17;;;;;;;0.00;0.00;;;;;;;;;;4956448;29;20191;-71
2022/03/28 08:47:46;;;;;;;0.00;0.00;;;;;;;;;;4956645;29;20321;-71
2022/03/28 08:50:16;;;;;;;0.43;0.43;;;;;;;;;;4956296;29;20675;-71
2022/03/28 08:52:44;;;;;;;0.43;0.25;;;;;;;;;;4955892;29;20285;-71
2022/03/28 08:55:12;;;;;;;0.00;0.00;;;;;;;;;;4956033;29;20286;-71
2022/03/28 08:57:40;;;;;;;0.00;0.00;;;;;;;;;;4956126;29;20184;-71
2022/03/28 09:00:09;;;;;;;27.85;3.30;;;;;;;;;;4956064;29;20259;-70
2022/03/28 09:02:41;;;;;;;0.30;0.30;;;;;;;;;;4955698;29;20199;-69
2022/03/28 09:05:09;;;;;;;1.52;1.52;;;;;;;;;;4955997;28;20334;-72
2022/03/28 09:07:39;;;;;;;0.73;0.43;;;;;;;;;;4955887;29;20776;-69
2022/03/28 09:10:08;;;;;;;0.63;0.63;;;;;;;;;;4955702;29;20195;-70
2022/03/28 09:12:41;;;;;;;0.00;0.00;;;;;;;;;;4955592;29;20195;-70
2022/03/28 09:15:14;;;;;;;0.70;0.40;;;;;;;;;;4955947;28;20597;-70
2022/03/28 09:17:43;;;;;;;0.00;0.00;;;;;;;;;;4955816;29;20202;-70
2022/03/28 09:20:11;;;;;;;0.00;0.00;;;;;;;;;;4956016;29;20191;-71
2022/03/28 09:22:41;;;;;;;1.33;1.23;;;;;;;;;;4955591;29;20668;-72
2022/03/28 09:25:11;;;;;;;3.65;1.38;;;;;;;;;;4955538;29;20683;-70
2022/03/28 09:27:40;;;;;;;0.52;0.52;;;;;;;;;;4955390;29;20314;-70
2022/03/28 09:30:10;;;;;;;0.90;0.90;;;;;;;;;;4955477;28;20623;-69
2022/03/28 09:32:38;;;;;;;1.55;1.45;;;;;;;;;;4955597;29;20199;-69
2022/03/28 09:35:10;;;;;;;0.30;0.30;;;;;;;;;;4955393;29;20191;-69
2022/03/28 09:38:01;;;;;;;0.20;0.20;;;;;;;;;;4955393;29;20277;-70
2022/03/28 09:40:31;;;;;;;0.70;0.70;;;;;;;;;;4955478;28;20671;-70
2022/03/28 09:42:59;;;;;;;0.00;0.00;;;;;;;;;;4955415;29;20281;-70
2022/03/28 09:45:28;;;;;;;1.13;1.13;;;;;;;;;;4955199;29;20282;-70
2022/03/28 09:47:59;;;;;;;0.00;0.00;;;;;;;;;;4957252;29;20242;-69
2022/03/28 09:50:37;;;;;;;0.30;0.30;;;;;;;;;;4967660;29;20310;-70
2022/03/28 09:53:13;;;;;;;4.40;0.95;;;;;;;;;;4957934;29;20560;-71
2022/03/28 09:55:47;;;;;;;1.95;0.45;;;;;;;;;;4955290;29;20206;-71
2022/03/28 09:58:32;;;;;;;3.83;1.33;;;;;;;;;;4954925;29;20529;-69
2022/03/28 10:00:59;;;;;;;1.35;1.25;;;;;;;;;;4954784;29;20198;-70
2022/03/28 10:03:27;;;;;;;0.63;0.55;;;;;;;;;;4964022;29;20187;-70
2022/03/28 10:05:55;;;;;;;0.95;0.80;;;;;;;;;;4963351;29;20274;-70
2022/03/28 10:08:24;;;;;;;0.17;0.17;;;;;;;;;;4954838;29;20230;-70
2022/03/28 10:10:52;;;;;;;0.00;0.00;;;;;;;;;;4954556;29;20206;-70
2022/03/28 10:13:19;;;;;;;0.00;0.00;;;;;;;;;;4954598;29;20196;-70
2022/03/28 10:15:47;;;;;;;0.25;0.25;;;;;;;;;;4954896;29;20187;-71
2022/03/28 10:18:15;;;;;;;0.52;0.30;;;;;;;;;;4954860;29;20195;-71
2022/03/28 10:20:44;;;;;;;1.00;0.90;;;;;;;;;;4954375;29;20195;-70
2022/03/28 10:23:14;;;;;;;0.38;0.32;;;;;;;;;;4954622;29;20278;-71
2022/03/28 10:25:43;;;;;;;1.05;0.45;;;;;;;;;;4954667;29;20649;-71
2022/03/28 10:28:11;;;;;;;1.23;0.88;;;;;;;;;;4954355;29;20231;-70
2022/03/28 10:30:40;;;;;;;0.25;0.25;;;;;;;;;;4954162;29;20282;-71
2022/03/28 10:33:11;;;;;;;0.63;0.60;;;;;;;;;;4954442;29;20203;-73
2022/03/28 10:35:39;;;;;;;0.90;0.90;;;;;;;;;;4954284;29;20209;-72
2022/03/28 10:38:15;;;;;;;0.00;0.00;;;;;;;;;;4954385;29;20282;-71
2022/03/28 10:40:55;;;;;;;1.25;1.17;;;;;;;;;;4953994;29;20551;-71
2022/03/28 10:43:25;;;;;;;18.27;1.52;;;;;;;;;;4954178;29;20550;-71
2022/03/28 10:45:53;;;;;;;1.42;1.05;;;;;;;;;;4954267;29;20203;-70
2022/03/28 10:48:35;;;;;;;0.00;0.00;;;;;;;;;;4954193;29;20322;-71
2022/03/28 10:51:07;;;;;;;0.15;0.15;;;;;;;;;;4953647;29;20201;-74
2022/03/28 10:53:40;;;;;;;0.32;0.32;;;;;;;;;;4954470;29;20230;-73
2022/03/28 10:56:13;;;;;;;2.88;2.65;;;;;;;;;;4954317;29;20206;-72
2022/03/28 10:58:41;;;;;;;1.08;0.55;;;;;;;;;;4954009;29;20781;-73
2022/03/28 11:01:30;;;;;;;1.38;1.13;;;;;;;;;;4954454;29;20206;-72
2022/03/28 11:04:00;;;;;;;1.45;1.33;;;;;;;;;;4949517;28;20231;-70
2022/03/28 11:06:49;;;;;;;0.00;0.00;;;;;;;;;;4954080;29;20201;-69
2022/03/28 11:09:32;;;;;;;2.55;1.63;;;;;;;;;;4954019;29;20237;-69
2022/03/28 11:12:04;;;;;;;0.82;0.80;;;;;;;;;;4953879;29;20199;-70
2022/03/28 11:14:41;;;;;;;1.25;1.15;;;;;;;;;;4953934;29;20671;-71
2022/03/28 11:17:16;;;;;;;0.00;0.00;;;;;;;;;;4954091;29;20213;-70
2022/03/28 11:20:03;;;;;;;0.20;0.20;;;;;;;;;;4953943;29;20195;-70
2022/03/28 11:22:48;;;;;;;2.20;1.20;;;;;;;;;;4953885;29;21073;-74
2022/03/28 11:25:36;;;;;;;0.00;0.00;;;;;;;;;;4954020;29;20198;-70
2022/03/28 11:28:10;;;;;;;1.00;0.85;;;;;;;;;;4953846;29;20561;-70
2022/03/28 11:30:39;;;;;;;0.13;0.13;;;;;;;;;;4953587;29;20287;-70
2022/03/28 11:33:11;;;;;;;1.98;1.58;;;;;;;;;;4954139;29;20250;-70
2022/03/28 11:35:39;;;;;;;0.10;0.10;;;;;;;;;;4953730;28;20605;-69
2022/03/28 11:38:07;;;;;;;0.00;0.00;;;;;;;;;;4954159;29;20199;-70
2022/03/28 11:40:39;;;;;;;3.47;1.88;;;;;;;;;;4953512;29;20198;-69
2022/03/28 11:43:09;;;;;;;1.10;0.50;;;;;;;;;;4953940;29;20199;-70
2022/03/28 11:45:37;;;;;;;0.00;0.00;;;;;;;;;;4953779;29;20732;-69
2022/03/28 11:48:04;;;;;;;0.00;0.00;;;;;;;;;;4953761;29;20234;-69
2022/03/28 11:50:34;;;;;;;0.00;0.00;;;;;;;;;;4953673;29;20199;-71
2022/03/28 11:53:02;;;;;;;0.10;0.10;;;;;;;;;;4953787;29;20191;-70
2022/03/28 11:55:30;;;;;;;1.65;1.55;;;;;;;;;;4953656;29;20206;-70
2022/03/28 11:58:19;;;;;;;0.43;0.43;;;;;;;;;;4953546;29;20191;-70
2022/03/28 12:00:50;;;;;;;0.28;0.25;;;;;;;;;;4953434;29;20218;-70
2022/03/28 12:03:18;;;;;;;0.70;0.70;;;;;;;;;;4955823;28;20202;-69
2022/03/28 12:05:46;;;;;;;0.00;0.00;;;;;;;;;;4957204;29;20661;-69
2022/03/28 12:08:15;;;;;;;0.43;0.17;;;;;;;;;;4957016;29;20223;-70
2022/03/28 12:10:44;;;;;;;0.03;0.03;;;;;;;;;;4956677;29;20195;-70
2022/03/28 12:13:12;;;;;;;2.67;2.53;;;;;;;;;;4957017;29;20191;-71
2022/03/28 12:15:43;;;;;;;1.35;0.88;;;;;;;;;;4957043;29;20206;-70
2022/03/28 12:18:12;;;;;;;0.43;0.43;;;;;;;;;;4956815;29;20241;-70
2022/03/28 12:20:41;;;;;;;6.43;2.72;;;;;;;;;;4956419;29;20293;-70
2022/03/28 12:23:09;;;;;;;3.78;1.30;;;;;;;;;;4957106;29;20199;-70
2022/03/28 12:25:38;;;;;;;1.88;1.38;;;;;;;;;;4956846;29;20218;-70
2022/03/28 12:28:07;;;;;;;0.00;0.00;;;;;;;;;;4956849;29;20266;-70
2022/03/28 12:30:36;;;;;;;0.55;0.55;;;;;;;;;;4956481;29;20209;-71
2022/03/28 12:33:15;;;;;;;0.00;0.00;;;;;;;;;;4956452;29;20207;-71
2022/03/28 12:35:46;;;;;;;0.13;0.10;;;;;;;;;;4956666;29;20249;-72
2022/03/28 12:38:17;;;;;;;0.03;0.03;;;;;;;;;;4956374;29;20263;-72
2022/03/28 12:40:46;;;;;;;0.32;0.32;;;;;;;;;;4956160;29;20207;-72
2022/03/28 12:43:16;;;;;;;2.78;1.27;;;;;;;;;;4956584;29;20195;-73
2022/03/28 12:45:43;;;;;;;0.00;0.00;;;;;;;;;;4956199;29;20290;-73
2022/03/28 12:48:12;;;;;;;0.65;0.65;;;;;;;;;;4956458;29;20237;-72
2022/03/28 12:50:55;;;;;;;0.60;0.60;;;;;;;;;;4955963;29;20199;-72
2022/03/28 12:53:24;;;;;;;1.95;1.75;;;;;;;;;;4956225;29;20198;-72
2022/03/28 12:55:52;;;;;;;9.20;1.25;;;;;;;;;;4956059;29;20667;-71
2022/03/28 12:58:20;;;;;;;0.15;0.15;;;;;;;;;;4956080;29;20640;-73
2022/03/28 13:00:47;;;;;;;0.28;0.15;;;;;;;;;;4955812;29;20195;-72
2022/03/28 13:03:32;;;;;;;1.50;0.50;;;;;;;;;;4955765;29;20199;-72
2022/03/28 13:06:11;;;;;;;0.88;0.60;;;;;;;;;;4956278;29;20231;-71
2022/03/28 13:08:40;;;;;;;0.28;0.28;;;;;;;;;;4955535;29;20313;-71
2022/03/28 13:11:14;;;;;;;0.75;0.55;;;;;;;;;;4956181;29;20198;-71
2022/03/28 13:13:41;;;;;;;0.75;0.75;;;;;;;;;;4955326;28;20675;-71
2022/03/28 13:16:09;;;;;;;1.25;1.25;;;;;;;;;;4955802;29;20550;-71
2022/03/28 13:18:37;;;;;;;0.10;0.10;;;;;;;;;;4955600;29;20289;-72
2022/03/28 13:21:06;;;;;;;1.80;1.58;;;;;;;;;;4955601;29;20210;-70
2022/03/28 13:23:36;;;;;;;0.75;0.65;;;;;;;;;;4955917;29;20217;-71
2022/03/28 13:26:14;;;;;;;0.00;0.00;;;;;;;;;;4955759;29;20194;-71
2022/03/28 13:28:43;;;;;;;0.80;0.80;;;;;;;;;;4955197;29;20223;-71
2022/03/28 13:31:12;;;;;;;1.17;1.13;;;;;;;;;;4955491;29;20604;-71
2022/03/28 13:33:40;;;;;;;2.45;2.25;;;;;;;;;;4955425;29;20628;-71
2022/03/28 13:36:07;;;;;;;0.52;0.47;;;;;;;;;;4955366;29;20195;-70
2022/03/28 13:38:40;;;;;;;0.60;0.60;;;;;;;;;;4955251;29;20199;-71
2022/03/28 13:41:08;;;;;;;0.75;0.75;;;;;;;;;;4955261;29;20740;-70
2022/03/28 13:43:36;;;;;;;0.50;0.50;;;;;;;;;;4955413;29;20202;-70
2022/03/28 13:46:09;;;;;;;0.35;0.30;;;;;;;;;;4955063;29;20720;-69
2022/03/28 13:48:36;;;;;;;2.58;1.67;;;;;;;;;;4954755;29;20313;-70
2022/03/28 13:51:04;;;;;;;0.40;0.38;;;;;;;;;;4955289;29;20546;-70
2022/03/28 13:53:33;;;;;;;2.05;1.70;;;;;;;;;;4955199;29;20195;-69
2022/03/28 13:56:02;;;;;;;3.33;1.25;;;;;;;;;;4955496;29;20203;-70
2022/03/28 13:58:30;;;;;;;2.90;2.03;;;;;;;;;;4954946;29;20207;-70
2022/03/28 14:00:58;;;;;;;0.88;0.80;;;;;;;;;;4954759;29;20254;-70
2022/03/28 14:03:27;;;;;;;10.40;3.42;;;;;;;;;;4954654;29;20191;-73
2022/03/28 14:05:54;;;;;;;0.55;0.55;;;;;;;;;;4954941;29;20250;-69
2022/03/28 14:08:22;;;;;;;0.43;0.43;;;;;;;;;;4954887;29;20313;-70
2022/03/28 14:10:50;;;;;;;1.35;0.65;;;;;;;;;;4954497;29;20214;-70
2022/03/28 14:13:20;;;;;;;0.00;0.00;;;;;;;;;;4954618;29;20238;-70
2022/03/28 14:15:47;;;;;;;0.15;0.15;;;;;;;;;;4954884;29;20195;-70
2022/03/28 14:18:17;;;;;;;2.28;2.08;;;;;;;;;;4954741;29;20191;-69
2022/03/28 14:20:46;;;;;;;3.80;1.35;;;;;;;;;;4954787;28;20206;-69
2022/03/28 14:23:13;;;;;;;0.10;0.10;;;;;;;;;;4954672;29;20205;-69
2022/03/28 14:25:42;;;;;;;0.45;0.45;;;;;;;;;;4961722;28;20209;-70
2022/03/28 14:28:09;;;;;;;0.75;0.75;;;;;;;;;;4965284;29;20195;-70
2022/03/28 14:30:38;;;;;;;10.00;9.00;;;;;;;;;;4954210;29;20235;-70
2022/03/28 14:33:05;;;;;;;2.30;2.10;;;;;;;;;;4954346;29;20200;-71
2022/03/28 14:35:47;;;;;;;0.88;0.88;;;;;;;;;;4959234;29;20195;-70
2022/03/28 14:38:24;;;;;;;0.13;0.10;;;;;;;;;;4914402;29;20245;-67
2022/03/28 14:40:58;;;;;;;1.27;1.15;;;;;;;;;;4971084;29;20191;-70
2022/03/28 14:43:29;;;;;;;1.83;1.73;;;;;;;;;;4971075;29;20195;-69
2022/03/28 14:49:17;;;;;;;0.00;0.00;;;;;;;;;;4959341;29;20313;-70
2022/03/28 14:51:44;;;;;;;1.55;1.20;;;;;;;;;;4959856;28;20262;-71
2022/03/28 14:54:12;;;;;;;2.63;1.92;;;;;;;;;;4954135;29;20206;-70
2022/03/28 14:56:40;;;;;;;3.20;2.33;;;;;;;;;;4953971;29;20199;-70
2022/03/28 14:59:07;;;;;;;6.75;4.68;;;;;;;;;;4954029;29;20195;-70